sensor_id;sensor_type;location;lat;lon;timestamp;pressure;altitude;pressure_sealevel;temperature;humidity
74708;BME280;63360;50.104;8.074;2024-01-10T00:02:20;98148.41;;;-8.01;100.00
74708;BME280;63360;50.104;8.074;2024-01-10T00:04:46;98148.47;;;-8.17;100.00
74708;BME280;63360;50.104;8.074;2024-01-10T00:07:13;98146.34;;;-8.06;100.00
74708;BME280;63360;50.104;8.074;2024-01-10T00:09:39;98141.66;;;-8.17;100.00
74708;BME280;63360;50.104;8.074;2024-01-10T00:12:06;98153.00;;;-8.05;100.00
74708;BME280;63360;50.104;8.074;2024-01-10T00:14:32;98136.75;;;-8.10;100.00
74708;BME280;63360;50.104;8.074;2024-01-10T00:16:58;98142.59;;;-8.10;100.00
74708;BME280;63360;50.104;8.074;2024-01-10T00:19:25;98134.84;;;-8.08;100.00
74708;BME280;63360;50.104;8.074;2024-01-10T00:21:51;98142.13;;;-8.13;100.00
74708;BME280;63360;50.104;8.074;2024-01-10T00:24:18;98135.19;;;-8.11;100.00
74708;BME280;63360;50.104;8.074;2024-01-10T00:26:44;98136.28;;;-8.14;100.00
74708;BME280;63360;50.104;8.074;2024-01-10T00:29:10;98127.94;;;-8.14;100.00
74708;BME280;63360;50.104;8.074;2024-01-10T00:31:37;98137.28;;;-8.23;100.00
74708;BME280;63360;50.104;8.074;2024-01-10T00:34:03;98136.78;;;-8.18;100.00
74708;BME280;63360;50.104;8.074;2024-01-10T00:36:30;98127.19;;;-8.23;100.00
74708;BME280;63360;50.104;8.074;2024-01-10T00:38:56;98123.44;;;-8.27;100.00
74708;BME280;63360;50.104;8.074;2024-01-10T00:41:23;98130.81;;;-8.25;100.00
74708;BME280;63360;50.104;8.074;2024-01-10T00:43:49;98129.94;;;-8.40;100.00
74708;BME280;63360;50.104;8.074;2024-01-10T00:46:16;98135.25;;;-8.27;100.00
74708;BME280;63360;50.104;8.074;2024-01-10T00:48:42;98127.59;;;-8.42;100.00
74708;BME280;63360;50.104;8.074;2024-01-10T00:51:09;98128.69;;;-8.36;100.00
74708;BME280;63360;50.104;8.074;2024-01-10T00:53:36;98127.56;;;-8.34;100.00
74708;BME280;63360;50.104;8.074;2024-01-10T00:56:05;98140.31;;;-8.35;100.00
74708;BME280;63360;50.104;8.074;2024-01-10T00:58:32;98123.94;;;-8.39;100.00
74708;BME280;63360;50.104;8.074;2024-01-10T01:00:59;98130.22;;;-8.35;100.00
74708;BME280;63360;50.104;8.074;2024-01-10T01:03:25;98120.75;;;-8.25;100.00
74708;BME280;63360;50.104;8.074;2024-01-10T01:05:52;98119.81;;;-8.32;100.00
74708;BME280;63360;50.104;8.074;2024-01-10T01:08:18;98119.88;;;-8.10;100.00
74708;BME280;63360;50.104;8.074;2024-01-10T01:10:45;98118.38;;;-8.27;100.00
74708;BME280;63360;50.104;8.074;2024-01-10T01:13:11;98112.25;;;-8.32;100.00
74708;BME280;63360;50.104;8.074;2024-01-10T01:15:38;98122.16;;;-8.23;100.00
74708;BME280;63360;50.104;8.074;2024-01-10T01:18:04;98121.66;;;-8.26;100.00
74708;BME280;63360;50.104;8.074;2024-01-10T01:20:31;98109.34;;;-8.21;100.00
74708;BME280;63360;50.104;8.074;2024-01-10T01:22:57;98112.91;;;-8.30;100.00
74708;BME280;63360;50.104;8.074;2024-01-10T01:25:24;98101.56;;;-8.42;100.00
74708;BME280;63360;50.104;8.074;2024-01-10T01:27:50;98094.00;;;-8.42;100.00
74708;BME280;63360;50.104;8.074;2024-01-10T01:30:17;98107.00;;;-8.23;100.00
74708;BME280;63360;50.104;8.074;2024-01-10T01:32:43;98099.25;;;-8.52;100.00
74708;BME280;63360;50.104;8.074;2024-01-10T01:35:10;98119.53;;;-8.45;100.00
74708;BME280;63360;50.104;8.074;2024-01-10T01:37:36;98112.56;;;-8.35;100.00
74708;BME280;63360;50.104;8.074;2024-01-10T01:40:03;98108.19;;;-8.33;100.00
74708;BME280;63360;50.104;8.074;2024-01-10T01:42:30;98114.47;;;-8.37;100.00
74708;BME280;63360;50.104;8.074;2024-01-10T01:44:56;98101.75;;;-8.44;100.00
74708;BME280;63360;50.104;8.074;2024-01-10T01:47:22;98095.13;;;-8.45;100.00
74708;BME280;63360;50.104;8.074;2024-01-10T01:49:49;98109.44;;;-8.37;100.00
74708;BME280;63360;50.104;8.074;2024-01-10T01:52:16;98105.97;;;-8.36;100.00
74708;BME280;63360;50.104;8.074;2024-01-10T01:54:42;98109.94;;;-8.42;100.00
74708;BME280;63360;50.104;8.074;2024-01-10T01:57:09;98110.72;;;-8.41;100.00
74708;BME280;63360;50.104;8.074;2024-01-10T01:59:35;98112.59;;;-8.43;100.00
74708;BME280;63360;50.104;8.074;2024-01-10T02:02:04;98114.63;;;-8.31;100.00
74708;BME280;63360;50.104;8.074;2024-01-10T02:04:31;98109.13;;;-8.34;100.00
74708;BME280;63360;50.104;8.074;2024-01-10T02:06:57;98105.34;;;-8.30;100.00
74708;BME280;63360;50.104;8.074;2024-01-10T02:09:23;98104.38;;;-8.37;100.00
74708;BME280;63360;50.104;8.074;2024-01-10T02:11:51;98102.69;;;-8.45;100.00
74708;BME280;63360;50.104;8.074;2024-01-10T02:14:17;98101.88;;;-8.45;100.00
74708;BME280;63360;50.104;8.074;2024-01-10T02:16:44;98100.16;;;-8.45;100.00
74708;BME280;63360;50.104;8.074;2024-01-10T02:19:19;98070.75;;;-8.69;100.00
74708;BME280;63360;50.104;8.074;2024-01-10T02:21:45;98092.94;;;-8.64;100.00
74708;BME280;63360;50.104;8.074;2024-01-10T02:24:12;98085.97;;;-8.46;100.00
74708;BME280;63360;50.104;8.074;2024-01-10T02:26:39;98077.94;;;-8.49;100.00
74708;BME280;63360;50.104;8.074;2024-01-10T02:29:05;98094.50;;;-8.47;100.00
74708;BME280;63360;50.104;8.074;2024-01-10T02:31:32;98093.22;;;-8.43;100.00
74708;BME280;63360;50.104;8.074;2024-01-10T02:33:58;98080.88;;;-8.38;100.00
74708;BME280;63360;50.104;8.074;2024-01-10T02:36:25;98079.34;;;-8.39;100.00
74708;BME280;63360;50.104;8.074;2024-01-10T02:38:52;98081.88;;;-8.16;100.00
74708;BME280;63360;50.104;8.074;2024-01-10T02:41:18;98077.84;;;-8.25;100.00
74708;BME280;63360;50.104;8.074;2024-01-10T02:43:44;98071.50;;;-8.21;100.00
74708;BME280;63360;50.104;8.074;2024-01-10T02:46:11;98069.03;;;-8.29;100.00
74708;BME280;63360;50.104;8.074;2024-01-10T02:48:37;98072.53;;;-8.08;100.00
74708;BME280;63360;50.104;8.074;2024-01-10T02:51:04;98071.59;;;-8.07;100.00
74708;BME280;63360;50.104;8.074;2024-01-10T02:53:30;98067.69;;;-8.09;100.00
74708;BME280;63360;50.104;8.074;2024-01-10T02:55:58;98072.50;;;-8.00;100.00
74708;BME280;63360;50.104;8.074;2024-01-10T02:58:24;98065.41;;;-7.96;100.00
74708;BME280;63360;50.104;8.074;2024-01-10T03:00:51;98076.34;;;-7.81;100.00
74708;BME280;63360;50.104;8.074;2024-01-10T03:03:18;98059.94;;;-7.85;100.00
74708;BME280;63360;50.104;8.074;2024-01-10T03:05:44;98061.53;;;-7.84;100.00
74708;BME280;63360;50.104;8.074;2024-01-10T03:08:10;98069.53;;;-7.72;100.00
74708;BME280;63360;50.104;8.074;2024-01-10T03:10:37;98062.97;;;-7.59;100.00
74708;BME280;63360;50.104;8.074;2024-01-10T03:13:03;98050.97;;;-7.42;100.00
74708;BME280;63360;50.104;8.074;2024-01-10T03:15:30;98051.03;;;-7.27;100.00
74708;BME280;63360;50.104;8.074;2024-01-10T03:17:57;98051.56;;;-7.32;100.00
74708;BME280;63360;50.104;8.074;2024-01-10T03:20:23;98063.09;;;-7.15;100.00
74708;BME280;63360;50.104;8.074;2024-01-10T03:22:50;98051.91;;;-7.20;100.00
74708;BME280;63360;50.104;8.074;2024-01-10T03:25:16;98045.50;;;-7.08;100.00
74708;BME280;63360;50.104;8.074;2024-01-10T03:27:45;98038.69;;;-7.08;100.00
74708;BME280;63360;50.104;8.074;2024-01-10T03:30:12;98047.63;;;-6.97;100.00
74708;BME280;63360;50.104;8.074;2024-01-10T03:32:38;98045.84;;;-6.97;100.00
74708;BME280;63360;50.104;8.074;2024-01-10T03:35:06;98040.38;;;-6.86;100.00
74708;BME280;63360;50.104;8.074;2024-01-10T03:37:33;98054.59;;;-6.70;100.00
74708;BME280;63360;50.104;8.074;2024-01-10T03:40:00;98035.25;;;-6.78;100.00
74708;BME280;63360;50.104;8.074;2024-01-10T03:42:26;98031.06;;;-6.56;89.54
74708;BME280;63360;50.104;8.074;2024-01-10T03:44:52;98040.81;;;-6.38;92.04
74708;BME280;63360;50.104;8.074;2024-01-10T03:47:19;98042.50;;;-6.31;92.65
74708;BME280;63360;50.104;8.074;2024-01-10T03:49:45;98049.53;;;-6.26;96.88
74708;BME280;63360;50.104;8.074;2024-01-10T03:52:12;98045.88;;;-6.24;88.25
74708;BME280;63360;50.104;8.074;2024-01-10T03:54:38;98029.28;;;-6.26;84.89
74708;BME280;63360;50.104;8.074;2024-01-10T03:57:07;98037.56;;;-6.18;85.04
74708;BME280;63360;50.104;8.074;2024-01-10T03:59:33;98035.63;;;-6.16;93.07
74708;BME280;63360;50.104;8.074;2024-01-10T04:01:59;98027.00;;;-6.21;90.19
74708;BME280;63360;50.104;8.074;2024-01-10T04:04:27;98035.44;;;-6.14;87.55
74708;BME280;63360;50.104;8.074;2024-01-10T04:06:53;98047.13;;;-5.98;90.11
74708;BME280;63360;50.104;8.074;2024-01-10T04:09:20;98042.84;;;-5.98;84.56
74708;BME280;63360;50.104;8.074;2024-01-10T04:11:46;98046.72;;;-6.02;93.83
74708;BME280;63360;50.104;8.074;2024-01-10T04:14:12;98038.47;;;-6.04;90.02
74708;BME280;63360;50.104;8.074;2024-01-10T04:16:39;98054.81;;;-5.92;86.24
74708;BME280;63360;50.104;8.074;2024-01-10T04:19:05;98050.56;;;-5.85;88.76
74708;BME280;63360;50.104;8.074;2024-01-10T04:21:32;98045.38;;;-5.98;89.35
74708;BME280;63360;50.104;8.074;2024-01-10T04:23:58;98025.75;;;-6.10;88.59
74708;BME280;63360;50.104;8.074;2024-01-10T04:26:25;98037.72;;;-6.04;89.31
74708;BME280;63360;50.104;8.074;2024-01-10T04:28:51;98041.78;;;-5.89;76.05
74708;BME280;63360;50.104;8.074;2024-01-10T04:31:18;98034.41;;;-5.84;82.96
74708;BME280;63360;50.104;8.074;2024-01-10T04:33:44;98040.13;;;-5.75;81.37
74708;BME280;63360;50.104;8.074;2024-01-10T04:36:10;98032.84;;;-5.85;80.28
74708;BME280;63360;50.104;8.074;2024-01-10T04:38:37;98043.03;;;-5.78;83.07
74708;BME280;63360;50.104;8.074;2024-01-10T04:41:03;98037.97;;;-5.78;88.76
74708;BME280;63360;50.104;8.074;2024-01-10T04:43:30;98037.97;;;-5.78;88.68
74708;BME280;63360;50.104;8.074;2024-01-10T04:45:56;98037.13;;;-5.85;85.73
74708;BME280;63360;50.104;8.074;2024-01-10T04:48:23;98030.66;;;-5.88;93.57
74708;BME280;63360;50.104;8.074;2024-01-10T04:50:49;98044.53;;;-5.84;88.23
74708;BME280;63360;50.104;8.074;2024-01-10T04:53:16;98047.13;;;-5.77;91.12
74708;BME280;63360;50.104;8.074;2024-01-10T04:55:42;98046.28;;;-5.84;86.17
74708;BME280;63360;50.104;8.074;2024-01-10T04:58:09;98036.97;;;-5.98;81.54
74708;BME280;63360;50.104;8.074;2024-01-10T05:00:35;98032.66;;;-6.04;80.47
74708;BME280;63360;50.104;8.074;2024-01-10T05:03:02;98049.03;;;-6.00;82.63
74708;BME280;63360;50.104;8.074;2024-01-10T05:05:28;98038.47;;;-6.04;82.10
74708;BME280;63360;50.104;8.074;2024-01-10T05:07:55;98047.31;;;-6.00;79.83
74708;BME280;63360;50.104;8.074;2024-01-10T05:10:21;98039.63;;;-6.06;88.25
74708;BME280;63360;50.104;8.074;2024-01-10T05:12:48;98044.69;;;-6.06;87.64
74708;BME280;63360;50.104;8.074;2024-01-10T05:15:14;98040.31;;;-5.98;88.78
74708;BME280;63360;50.104;8.074;2024-01-10T05:17:40;98038.88;;;-6.07;86.42
74708;BME280;63360;50.104;8.074;2024-01-10T05:20:07;98042.88;;;-6.12;90.40
74708;BME280;63360;50.104;8.074;2024-01-10T05:22:35;98040.25;;;-6.19;96.11
74708;BME280;63360;50.104;8.074;2024-01-10T05:25:02;98033.34;;;-6.10;100.00
74708;BME280;63360;50.104;8.074;2024-01-10T05:27:28;98036.00;;;-6.19;97.73
74708;BME280;63360;50.104;8.074;2024-01-10T05:29:55;98038.78;;;-6.13;100.00
74708;BME280;63360;50.104;8.074;2024-01-10T05:32:21;98016.69;;;-6.20;93.13
74708;BME280;63360;50.104;8.074;2024-01-10T05:34:48;98036.69;;;-6.10;90.72
74708;BME280;63360;50.104;8.074;2024-01-10T05:37:15;98033.28;;;-6.17;91.63
74708;BME280;63360;50.104;8.074;2024-01-10T05:39:42;98026.56;;;-6.25;100.00
74708;BME280;63360;50.104;8.074;2024-01-10T05:42:08;98040.50;;;-6.14;95.56
74708;BME280;63360;50.104;8.074;2024-01-10T05:44:35;98014.19;;;-6.34;98.17
74708;BME280;63360;50.104;8.074;2024-01-10T05:47:01;98019.63;;;-6.37;97.82
74708;BME280;63360;50.104;8.074;2024-01-10T05:49:29;98021.34;;;-6.23;94.43
74708;BME280;63360;50.104;8.074;2024-01-10T05:51:55;98021.59;;;-6.33;97.89
74708;BME280;63360;50.104;8.074;2024-01-10T05:54:21;98023.88;;;-6.38;99.31
74708;BME280;63360;50.104;8.074;2024-01-10T05:56:48;98027.28;;;-6.31;100.00
74708;BME280;63360;50.104;8.074;2024-01-10T05:59:14;98017.69;;;-6.35;100.00
74708;BME280;63360;50.104;8.074;2024-01-10T06:01:43;98024.22;;;-6.26;92.89
74708;BME280;63360;50.104;8.074;2024-01-10T06:04:09;98032.75;;;-6.12;89.66
74708;BME280;63360;50.104;8.074;2024-01-10T06:06:35;98016.44;;;-6.25;93.86
74708;BME280;63360;50.104;8.074;2024-01-10T06:09:02;98029.50;;;-6.06;88.63
74708;BME280;63360;50.104;8.074;2024-01-10T06:11:28;98012.25;;;-6.18;87.32
74708;BME280;63360;50.104;8.074;2024-01-10T06:13:55;98026.38;;;-6.08;88.60
74708;BME280;63360;50.104;8.074;2024-01-10T06:16:23;98023.03;;;-6.09;87.26
74708;BME280;63360;50.104;8.074;2024-01-10T06:18:50;98022.41;;;-5.96;82.15
74708;BME280;63360;50.104;8.074;2024-01-10T06:21:17;98033.94;;;-5.94;83.87
74708;BME280;63360;50.104;8.074;2024-01-10T06:23:43;98027.59;;;-5.83;85.98
74708;BME280;63360;50.104;8.074;2024-01-10T06:26:10;98028.63;;;-5.78;79.16
74708;BME280;63360;50.104;8.074;2024-01-10T06:28:37;98017.44;;;-5.83;79.61
74708;BME280;63360;50.104;8.074;2024-01-10T06:31:03;98018.88;;;-5.74;76.67
74708;BME280;63360;50.104;8.074;2024-01-10T06:33:32;98028.31;;;-5.68;78.15
74708;BME280;63360;50.104;8.074;2024-01-10T06:36:00;98033.72;;;-5.71;78.66
74708;BME280;63360;50.104;8.074;2024-01-10T06:38:26;98033.13;;;-5.73;79.38
74708;BME280;63360;50.104;8.074;2024-01-10T06:40:53;98022.31;;;-5.82;81.58
74708;BME280;63360;50.104;8.074;2024-01-10T06:43:19;98034.09;;;-5.74;79.39
74708;BME280;63360;50.104;8.074;2024-01-10T06:45:46;98022.31;;;-5.82;83.47
74708;BME280;63360;50.104;8.074;2024-01-10T06:48:12;98026.00;;;-5.91;82.22
74708;BME280;63360;50.104;8.074;2024-01-10T06:50:39;98011.75;;;-6.06;83.88
74708;BME280;63360;50.104;8.074;2024-01-10T06:53:06;98027.66;;;-5.98;83.30
74708;BME280;63360;50.104;8.074;2024-01-10T06:55:32;98026.19;;;-6.07;85.56
74708;BME280;63360;50.104;8.074;2024-01-10T06:57:59;98026.31;;;-6.15;94.10
74708;BME280;63360;50.104;8.074;2024-01-10T07:00:25;98030.03;;;-6.11;92.99
74708;BME280;63360;50.104;8.074;2024-01-10T07:02:52;98037.97;;;-6.14;89.91
74708;BME280;63360;50.104;8.074;2024-01-10T07:05:19;98029.53;;;-6.21;96.92
74708;BME280;63360;50.104;8.074;2024-01-10T07:07:46;98040.50;;;-6.14;100.00
74708;BME280;63360;50.104;8.074;2024-01-10T07:10:13;98024.47;;;-6.21;94.91
74708;BME280;63360;50.104;8.074;2024-01-10T07:12:39;98034.59;;;-6.21;95.32
74708;BME280;63360;50.104;8.074;2024-01-10T07:15:06;98044.38;;;-6.18;88.40
74708;BME280;63360;50.104;8.074;2024-01-10T07:17:32;98036.69;;;-6.25;99.01
74708;BME280;63360;50.104;8.074;2024-01-10T07:19:59;98051.38;;;-6.20;94.69
74708;BME280;63360;50.104;8.074;2024-01-10T07:22:26;98048.06;;;-6.21;99.49
74708;BME280;63360;50.104;8.074;2024-01-10T07:24:52;98052.75;;;-6.18;93.03
74708;BME280;63360;50.104;8.074;2024-01-10T07:27:19;98046.47;;;-6.22;90.06
74708;BME280;63360;50.104;8.074;2024-01-10T07:29:45;98051.63;;;-6.15;89.51
74708;BME280;63360;50.104;8.074;2024-01-10T07:32:12;98044.53;;;-6.20;86.51
74708;BME280;63360;50.104;8.074;2024-01-10T07:34:40;98042.78;;;-6.19;87.40
74708;BME280;63360;50.104;8.074;2024-01-10T07:37:06;98068.03;;;-6.11;92.16
74708;BME280;63360;50.104;8.074;2024-01-10T07:39:34;98052.13;;;-6.20;100.00
74708;BME280;63360;50.104;8.074;2024-01-10T07:42:01;98048.13;;;-6.14;94.76
74708;BME280;63360;50.104;8.074;2024-01-10T07:44:28;98051.78;;;-6.17;90.53
74708;BME280;63360;50.104;8.074;2024-01-10T07:46:55;98066.19;;;-6.02;86.55
74708;BME280;63360;50.104;8.074;2024-01-10T07:49:21;98059.81;;;-6.13;92.84
74708;BME280;63360;50.104;8.074;2024-01-10T07:51:50;98063.31;;;-6.14;90.64
74708;BME280;63360;50.104;8.074;2024-01-10T07:54:16;98076.81;;;-5.92;88.96
74708;BME280;63360;50.104;8.074;2024-01-10T07:56:43;98065.63;;;-5.98;90.75
74708;BME280;63360;50.104;8.074;2024-01-10T07:59:09;98072.34;;;-5.90;88.26
74708;BME280;63360;50.104;8.074;2024-01-10T08:01:36;98081.97;;;-5.79;91.70
74708;BME280;63360;50.104;8.074;2024-01-10T08:04:02;98081.16;;;-5.65;91.12
74708;BME280;63360;50.104;8.074;2024-01-10T08:06:28;98088.91;;;-5.52;81.49
74708;BME280;63360;50.104;8.074;2024-01-10T08:08:59;98068.63;;;-5.52;80.88
74708;BME280;63360;50.104;8.074;2024-01-10T08:11:25;98080.22;;;-5.43;83.25
74708;BME280;63360;50.104;8.074;2024-01-10T08:13:52;98072.09;;;-5.32;77.41
74708;BME280;63360;50.104;8.074;2024-01-10T08:16:18;98085.88;;;-5.20;78.33
74708;BME280;63360;50.104;8.074;2024-01-10T08:18:45;98086.34;;;-5.10;77.01
74708;BME280;63360;50.104;8.074;2024-01-10T08:21:12;98080.13;;;-5.07;75.39
74708;BME280;63360;50.104;8.074;2024-01-10T08:23:38;98069.63;;;-5.04;75.09
74708;BME280;63360;50.104;8.074;2024-01-10T08:26:06;98076.66;;;-5.00;72.41
74708;BME280;63360;50.104;8.074;2024-01-10T08:28:34;98080.44;;;-4.89;73.17
74708;BME280;63360;50.104;8.074;2024-01-10T08:31:00;98084.84;;;-4.76;72.66
74708;BME280;63360;50.104;8.074;2024-01-10T08:33:30;98080.75;;;-4.77;71.48
74708;BME280;63360;50.104;8.074;2024-01-10T08:35:57;98094.06;;;-4.69;72.02
74708;BME280;63360;50.104;8.074;2024-01-10T08:38:25;98073.56;;;-4.67;71.97
74708;BME280;63360;50.104;8.074;2024-01-10T08:40:51;98075.38;;;-4.61;72.69
74708;BME280;63360;50.104;8.074;2024-01-10T08:43:18;98078.94;;;-4.56;71.84
74708;BME280;63360;50.104;8.074;2024-01-10T08:45:44;98093.41;;;-4.50;71.90
74708;BME280;63360;50.104;8.074;2024-01-10T08:48:10;98085.59;;;-4.48;70.99
74708;BME280;63360;50.104;8.074;2024-01-10T08:50:39;98084.44;;;-4.46;70.61
74708;BME280;63360;50.104;8.074;2024-01-10T08:53:06;98100.13;;;-4.36;69.02
74708;BME280;63360;50.104;8.074;2024-01-10T08:55:32;98087.25;;;-4.34;69.14
74708;BME280;63360;50.104;8.074;2024-01-10T08:58:00;98100.41;;;-4.24;67.76
74708;BME280;63360;50.104;8.074;2024-01-10T09:00:26;98089.81;;;-4.28;67.73
74708;BME280;63360;50.104;8.074;2024-01-10T09:02:54;98099.06;;;-4.13;69.75
74708;BME280;63360;50.104;8.074;2024-01-10T09:05:20;98107.28;;;-4.11;67.75
74708;BME280;63360;50.104;8.074;2024-01-10T09:07:48;98106.75;;;-4.00;68.19
74708;BME280;63360;50.104;8.074;2024-01-10T09:10:15;98097.94;;;-4.04;68.08
74708;BME280;63360;50.104;8.074;2024-01-10T09:12:42;98104.00;;;-3.99;66.99
74708;BME280;63360;50.104;8.074;2024-01-10T09:15:12;98107.13;;;-4.03;67.79
74708;BME280;63360;50.104;8.074;2024-01-10T09:17:43;98113.63;;;-3.94;68.05
74708;BME280;63360;50.104;8.074;2024-01-10T09:20:11;98104.97;;;-4.06;67.93
74708;BME280;63360;50.104;8.074;2024-01-10T09:22:39;98103.75;;;-4.17;69.23
74708;BME280;63360;50.104;8.074;2024-01-10T09:25:05;98105.34;;;-4.09;67.67
74708;BME280;63360;50.104;8.074;2024-01-10T09:27:32;98105.53;;;-4.04;69.30
74708;BME280;63360;50.104;8.074;2024-01-10T09:30:02;98114.53;;;-4.08;67.39
74708;BME280;63360;50.104;8.074;2024-01-10T09:32:29;98116.53;;;-3.97;67.61
74708;BME280;63360;50.104;8.074;2024-01-10T09:34:56;98115.16;;;-4.00;67.53
74708;BME280;63360;50.104;8.074;2024-01-10T09:37:22;98119.28;;;-3.92;68.66
74708;BME280;63360;50.104;8.074;2024-01-10T09:39:49;98118.28;;;-3.98;67.54
74708;BME280;63360;50.104;8.074;2024-01-10T09:42:16;98124.59;;;-3.87;66.71
74708;BME280;63360;50.104;8.074;2024-01-10T09:44:42;98130.06;;;-3.90;67.55
74708;BME280;63360;50.104;8.074;2024-01-10T09:47:09;98124.56;;;-3.94;69.18
74708;BME280;63360;50.104;8.074;2024-01-10T09:49:35;98120.47;;;-3.95;68.13
74708;BME280;63360;50.104;8.074;2024-01-10T09:52:04;98127.56;;;-3.77;68.28
74708;BME280;63360;50.104;8.074;2024-01-10T09:54:31;98122.88;;;-3.74;68.16
74708;BME280;63360;50.104;8.074;2024-01-10T09:56:57;98120.56;;;-3.69;67.48
74708;BME280;63360;50.104;8.074;2024-01-10T09:59:24;98119.97;;;-3.71;66.90
74708;BME280;63360;50.104;8.074;2024-01-10T10:01:56;98116.88;;;-3.59;69.01
74708;BME280;63360;50.104;8.074;2024-01-10T10:04:27;98117.47;;;-3.57;66.48
74708;BME280;63360;50.104;8.074;2024-01-10T10:07:00;98112.56;;;-3.65;65.87
74708;BME280;63360;50.104;8.074;2024-01-10T10:09:28;98110.97;;;-3.67;65.78
74708;BME280;63360;50.104;8.074;2024-01-10T10:11:56;98112.19;;;-3.62;68.15
74708;BME280;63360;50.104;8.074;2024-01-10T10:14:24;98096.13;;;-3.63;66.35
74708;BME280;63360;50.104;8.074;2024-01-10T10:16:52;98113.34;;;-3.58;68.80
74708;BME280;63360;50.104;8.074;2024-01-10T10:19:23;98100.63;;;-3.58;67.88
74708;BME280;63360;50.104;8.074;2024-01-10T10:22:09;98108.63;;;-3.68;67.44
74708;BME280;63360;50.104;8.074;2024-01-10T10:24:35;98106.09;;;-3.68;67.68
74708;BME280;63360;50.104;8.074;2024-01-10T10:27:08;98097.66;;;-3.75;66.86
74708;BME280;63360;50.104;8.074;2024-01-10T10:29:36;98107.06;;;-3.69;66.70
74708;BME280;63360;50.104;8.074;2024-01-10T10:32:03;98091.19;;;-3.78;66.68
74708;BME280;63360;50.104;8.074;2024-01-10T10:34:31;98102.34;;;-3.72;68.40
74708;BME280;63360;50.104;8.074;2024-01-10T10:37:00;98104.94;;;-3.59;69.97
74708;BME280;63360;50.104;8.074;2024-01-10T10:39:27;98096.88;;;-3.69;68.37
74708;BME280;63360;50.104;8.074;2024-01-10T10:41:53;98106.88;;;-3.67;67.63
74708;BME280;63360;50.104;8.074;2024-01-10T10:44:23;98101.78;;;-3.67;68.36
74708;BME280;63360;50.104;8.074;2024-01-10T10:46:53;98114.34;;;-3.53;68.53
74708;BME280;63360;50.104;8.074;2024-01-10T10:49:46;98115.88;;;-3.58;68.88
74708;BME280;63360;50.104;8.074;2024-01-10T10:52:15;98112.75;;;-3.60;68.24
74708;BME280;63360;50.104;8.074;2024-01-10T10:54:43;98120.97;;;-3.58;68.40
74708;BME280;63360;50.104;8.074;2024-01-10T10:57:11;98105.72;;;-3.58;67.61
74708;BME280;63360;50.104;8.074;2024-01-10T10:59:39;98103.34;;;-3.67;67.98
74708;BME280;63360;50.104;8.074;2024-01-10T11:02:09;98115.72;;;-3.50;69.20
74708;BME280;63360;50.104;8.074;2024-01-10T11:04:37;98109.28;;;-3.46;68.41
74708;BME280;63360;50.104;8.074;2024-01-10T11:07:07;98099.50;;;-3.49;68.69
74708;BME280;63360;50.104;8.074;2024-01-10T11:09:34;98105.72;;;-3.58;68.58
74708;BME280;63360;50.104;8.074;2024-01-10T11:25:43;98118.88;;;-3.35;69.60
74708;BME280;63360;50.104;8.074;2024-01-10T11:28:12;98103.59;;;-3.42;70.43
74708;BME280;63360;50.104;8.074;2024-01-10T11:30:50;98114.41;;;-3.33;69.28
74708;BME280;63360;50.104;8.074;2024-01-10T11:33:26;98112.63;;;-3.33;69.34
74708;BME280;63360;50.104;8.074;2024-01-10T11:36:06;98112.44;;;-3.18;71.29
74708;BME280;63360;50.104;8.074;2024-01-10T11:41:10;98100.91;;;-2.81;70.05
74708;BME280;63360;50.104;8.074;2024-01-10T11:43:38;98087.00;;;-2.92;68.45
74708;BME280;63360;50.104;8.074;2024-01-10T11:46:06;98083.69;;;-2.92;68.06
74708;BME280;63360;50.104;8.074;2024-01-10T11:48:32;98077.81;;;-2.93;68.67
74708;BME280;63360;50.104;8.074;2024-01-10T11:50:59;98088.00;;;-2.86;67.63
74708;BME280;63360;50.104;8.074;2024-01-10T11:56:13;98080.72;;;-2.57;68.90
74708;BME280;63360;50.104;8.074;2024-01-10T11:58:55;98089.47;;;-2.39;68.79
74708;BME280;63360;50.104;8.074;2024-01-10T12:01:22;98088.72;;;-2.47;66.80
74708;BME280;63360;50.104;8.074;2024-01-10T12:03:51;98081.41;;;-2.23;67.34
74708;BME280;63360;50.104;8.074;2024-01-10T12:06:39;98078.91;;;-2.30;68.31
74708;BME280;63360;50.104;8.074;2024-01-10T12:09:05;98075.38;;;-2.29;67.90
74708;BME280;63360;50.104;8.074;2024-01-10T12:11:35;98069.72;;;-2.37;67.35
74708;BME280;63360;50.104;8.074;2024-01-10T12:14:02;98078.13;;;-2.37;66.77
74708;BME280;63360;50.104;8.074;2024-01-10T12:16:29;98075.19;;;-2.40;67.85
74708;BME280;63360;50.104;8.074;2024-01-10T12:18:55;98055.03;;;-2.49;67.94
74708;BME280;63360;50.104;8.074;2024-01-10T12:21:22;98079.72;;;-2.42;66.57
74708;BME280;63360;50.104;8.074;2024-01-10T12:23:48;98060.72;;;-2.53;67.21
74708;BME280;63360;50.104;8.074;2024-01-10T12:26:15;98057.00;;;-2.51;68.35
74708;BME280;63360;50.104;8.074;2024-01-10T12:28:56;98067.94;;;-2.37;66.48
74708;BME280;63360;50.104;8.074;2024-01-10T12:31:24;98078.72;;;-2.41;67.42
74708;BME280;63360;50.104;8.074;2024-01-10T12:33:55;98081.22;;;-2.28;67.66
74708;BME280;63360;50.104;8.074;2024-01-10T12:36:21;98074.63;;;-2.42;68.35
74708;BME280;63360;50.104;8.074;2024-01-10T12:38:48;98065.00;;;-2.40;70.02
74708;BME280;63360;50.104;8.074;2024-01-10T12:41:15;98070.28;;;-2.42;68.67
74708;BME280;63360;50.104;8.074;2024-01-10T12:43:42;98076.31;;;-2.17;70.22
74708;BME280;63360;50.104;8.074;2024-01-10T12:46:12;98075.28;;;-2.09;69.16
74708;BME280;63360;50.104;8.074;2024-01-10T12:48:40;98071.72;;;-1.95;68.39
74708;BME280;63360;50.104;8.074;2024-01-10T12:51:11;98058.44;;;-2.10;68.17
74708;BME280;63360;50.104;8.074;2024-01-10T12:53:39;98073.53;;;-2.09;67.48
74708;BME280;63360;50.104;8.074;2024-01-10T12:56:07;98063.16;;;-2.20;69.70
74708;BME280;63360;50.104;8.074;2024-01-10T12:58:35;98074.78;;;-2.31;68.84
74708;BME280;63360;50.104;8.074;2024-01-10T13:01:02;98066.56;;;-2.39;69.32
74708;BME280;63360;50.104;8.074;2024-01-10T13:03:32;98065.75;;;-2.33;70.08
74708;BME280;63360;50.104;8.074;2024-01-10T13:05:59;98062.06;;;-2.37;70.23
74708;BME280;63360;50.104;8.074;2024-01-10T13:08:26;98062.25;;;-2.39;70.96
74708;BME280;63360;50.104;8.074;2024-01-10T13:10:53;98077.72;;;-2.34;70.42
74708;BME280;63360;50.104;8.074;2024-01-10T13:13:20;98076.31;;;-2.23;72.26
74708;BME280;63360;50.104;8.074;2024-01-10T13:15:48;98080.44;;;-2.22;71.17
74708;BME280;63360;50.104;8.074;2024-01-10T13:18:15;98069.88;;;-2.32;72.38